sensor_id;sensor_type;location;lat;lon;timestamp;P1;durP1;ratioP1;P2;durP2;ratioP2
73938;SDS011;62291;47.554;8.504;2023-02-01T00:02:03;8.60;;;5.25;;
73938;SDS011;62291;47.554;8.504;2023-02-01T00:04:28;9.82;;;5.78;;
73938;SDS011;62291;47.554;8.504;2023-02-01T00:06:54;8.45;;;5.28;;
73938;SDS011;62291;47.554;8.504;2023-02-01T00:09:20;11.73;;;6.10;;
73938;SDS011;62291;47.554;8.504;2023-02-01T00:11:45;9.57;;;6.15;;
73938;SDS011;62291;47.554;8.504;2023-02-01T00:14:11;12.13;;;6.82;;
73938;SDS011;62291;47.554;8.504;2023-02-01T00:16:38;11.18;;;6.10;;
73938;SDS011;62291;47.554;8.504;2023-02-01T00:19:05;11.25;;;6.97;;
73938;SDS011;62291;47.554;8.504;2023-02-01T00:21:33;11.75;;;6.05;;
73938;SDS011;62291;47.554;8.504;2023-02-01T00:23:59;9.82;;;5.85;;
73938;SDS011;62291;47.554;8.504;2023-02-01T00:26:27;12.70;;;7.05;;
73938;SDS011;62291;47.554;8.504;2023-02-01T00:28:55;11.90;;;7.50;;
73938;SDS011;62291;47.554;8.504;2023-02-01T00:31:21;11.32;;;7.05;;
73938;SDS011;62291;47.554;8.504;2023-02-01T00:33:47;11.48;;;6.03;;
73938;SDS011;62291;47.554;8.504;2023-02-01T00:36:13;11.90;;;6.65;;
73938;SDS011;62291;47.554;8.504;2023-02-01T00:38:39;14.57;;;7.25;;
73938;SDS011;62291;47.554;8.504;2023-02-01T00:41:06;12.27;;;6.97;;
73938;SDS011;62291;47.554;8.504;2023-02-01T00:43:35;12.30;;;7.43;;
73938;SDS011;62291;47.554;8.504;2023-02-01T00:46:01;12.77;;;7.32;;
73938;SDS011;62291;47.554;8.504;2023-02-01T00:48:27;10.85;;;7.05;;
73938;SDS011;62291;47.554;8.504;2023-02-01T00:50:53;10.60;;;6.93;;
73938;SDS011;62291;47.554;8.504;2023-02-01T00:53:18;14.05;;;7.57;;
73938;SDS011;62291;47.554;8.504;2023-02-01T00:55:45;11.25;;;7.13;;
73938;SDS011;62291;47.554;8.504;2023-02-01T00:58:11;13.15;;;7.95;;
73938;SDS011;62291;47.554;8.504;2023-02-01T01:00:37;10.20;;;7.13;;
73938;SDS011;62291;47.554;8.504;2023-02-01T01:03:03;10.48;;;7.28;;
73938;SDS011;62291;47.554;8.504;2023-02-01T01:05:43;12.52;;;7.57;;
73938;SDS011;62291;47.554;8.504;2023-02-01T01:08:09;11.70;;;7.38;;
73938;SDS011;62291;47.554;8.504;2023-02-01T01:10:35;13.07;;;7.30;;
73938;SDS011;62291;47.554;8.504;2023-02-01T01:13:01;11.50;;;7.30;;
73938;SDS011;62291;47.554;8.504;2023-02-01T01:15:26;13.45;;;7.40;;
73938;SDS011;62291;47.554;8.504;2023-02-01T01:17:52;13.00;;;8.60;;
73938;SDS011;62291;47.554;8.504;2023-02-01T01:20:18;13.52;;;8.60;;
73938;SDS011;62291;47.554;8.504;2023-02-01T01:22:46;13.82;;;7.90;;
73938;SDS011;62291;47.554;8.504;2023-02-01T01:25:15;13.75;;;7.95;;
73938;SDS011;62291;47.554;8.504;2023-02-01T01:27:40;12.38;;;8.40;;
73938;SDS011;62291;47.554;8.504;2023-02-01T01:30:07;15.65;;;8.73;;
73938;SDS011;62291;47.554;8.504;2023-02-01T01:32:34;14.80;;;8.32;;
73938;SDS011;62291;47.554;8.504;2023-02-01T01:34:59;11.88;;;8.23;;
73938;SDS011;62291;47.554;8.504;2023-02-01T01:37:25;14.48;;;8.43;;
73938;SDS011;62291;47.554;8.504;2023-02-01T01:39:51;12.48;;;7.88;;
73938;SDS011;62291;47.554;8.504;2023-02-01T01:42:16;13.18;;;8.18;;
73938;SDS011;62291;47.554;8.504;2023-02-01T01:44:56;15.40;;;8.70;;
73938;SDS011;62291;47.554;8.504;2023-02-01T01:47:48;15.00;;;9.13;;
73938;SDS011;62291;47.554;8.504;2023-02-01T01:50:18;12.93;;;8.05;;
73938;SDS011;62291;47.554;8.504;2023-02-01T01:52:49;14.60;;;9.23;;
73938;SDS011;62291;47.554;8.504;2023-02-01T01:55:17;15.00;;;9.25;;
73938;SDS011;62291;47.554;8.504;2023-02-01T01:57:46;15.48;;;8.93;;
73938;SDS011;62291;47.554;8.504;2023-02-01T02:00:18;13.73;;;9.30;;
73938;SDS011;62291;47.554;8.504;2023-02-01T02:02:47;14.23;;;8.38;;
73938;SDS011;62291;47.554;8.504;2023-02-01T02:05:17;14.95;;;8.95;;
73938;SDS011;62291;47.554;8.504;2023-02-01T02:07:45;15.73;;;9.75;;
73938;SDS011;62291;47.554;8.504;2023-02-01T02:10:14;13.93;;;9.43;;
73938;SDS011;62291;47.554;8.504;2023-02-01T02:12:41;16.02;;;10.63;;
73938;SDS011;62291;47.554;8.504;2023-02-01T02:15:10;16.27;;;10.93;;
73938;SDS011;62291;47.554;8.504;2023-02-01T02:17:44;18.30;;;11.02;;
73938;SDS011;62291;47.554;8.504;2023-02-01T02:41:11;25.80;;;13.65;;
73938;SDS011;62291;47.554;8.504;2023-02-01T02:44:06;24.92;;;14.68;;
73938;SDS011;62291;47.554;8.504;2023-02-01T02:47:10;25.17;;;13.88;;
73938;SDS011;62291;47.554;8.504;2023-02-01T02:49:52;24.17;;;13.70;;
73938;SDS011;62291;47.554;8.504;2023-02-01T02:52:39;25.83;;;14.57;;
73938;SDS011;62291;47.554;8.504;2023-02-01T02:55:31;26.67;;;14.73;;
73938;SDS011;62291;47.554;8.504;2023-02-01T02:58:00;27.80;;;15.32;;
73938;SDS011;62291;47.554;8.504;2023-02-01T03:00:47;27.70;;;16.50;;
73938;SDS011;62291;47.554;8.504;2023-02-01T03:03:35;33.30;;;18.48;;
73938;SDS011;62291;47.554;8.504;2023-02-01T03:06:22;32.58;;;18.67;;
73938;SDS011;62291;47.554;8.504;2023-02-01T03:08:48;32.83;;;19.73;;
73938;SDS011;62291;47.554;8.504;2023-02-01T03:11:19;34.42;;;20.40;;
73938;SDS011;62291;47.554;8.504;2023-02-01T03:13:52;39.75;;;22.20;;
73938;SDS011;62291;47.554;8.504;2023-02-01T03:19:24;43.08;;;23.42;;
73938;SDS011;62291;47.554;8.504;2023-02-01T03:21:57;44.63;;;24.13;;
73938;SDS011;62291;47.554;8.504;2023-02-01T03:27:30;42.67;;;22.92;;
73938;SDS011;62291;47.554;8.504;2023-02-01T03:32:43;40.70;;;22.27;;
73938;SDS011;62291;47.554;8.504;2023-02-01T03:38:35;38.22;;;22.30;;
73938;SDS011;62291;47.554;8.504;2023-02-01T03:41:02;37.35;;;21.45;;
73938;SDS011;62291;47.554;8.504;2023-02-01T03:43:45;41.90;;;22.60;;
73938;SDS011;62291;47.554;8.504;2023-02-01T03:46:16;38.55;;;21.38;;
73938;SDS011;62291;47.554;8.504;2023-02-01T03:48:46;36.35;;;19.85;;
73938;SDS011;62291;47.554;8.504;2023-02-01T03:51:14;37.55;;;21.20;;
73938;SDS011;62291;47.554;8.504;2023-02-01T03:53:42;33.60;;;19.13;;
73938;SDS011;62291;47.554;8.504;2023-02-01T03:56:11;26.77;;;16.88;;
73938;SDS011;62291;47.554;8.504;2023-02-01T03:58:38;32.10;;;19.40;;
73938;SDS011;62291;47.554;8.504;2023-02-01T04:01:03;31.73;;;17.83;;
73938;SDS011;62291;47.554;8.504;2023-02-01T04:03:29;29.10;;;17.23;;
73938;SDS011;62291;47.554;8.504;2023-02-01T04:05:55;29.98;;;17.20;;
73938;SDS011;62291;47.554;8.504;2023-02-01T04:08:21;29.98;;;17.88;;
73938;SDS011;62291;47.554;8.504;2023-02-01T04:10:47;28.88;;;16.65;;
73938;SDS011;62291;47.554;8.504;2023-02-01T04:13:13;28.85;;;15.30;;
73938;SDS011;62291;47.554;8.504;2023-02-01T04:15:38;31.13;;;18.35;;
73938;SDS011;62291;47.554;8.504;2023-02-01T04:18:04;26.45;;;16.67;;
73938;SDS011;62291;47.554;8.504;2023-02-01T04:20:30;28.25;;;17.70;;
73938;SDS011;62291;47.554;8.504;2023-02-01T04:22:56;29.60;;;18.05;;
73938;SDS011;62291;47.554;8.504;2023-02-01T04:25:22;27.55;;;17.95;;
73938;SDS011;62291;47.554;8.504;2023-02-01T04:27:48;27.67;;;17.70;;
73938;SDS011;62291;47.554;8.504;2023-02-01T04:30:13;32.13;;;18.42;;
73938;SDS011;62291;47.554;8.504;2023-02-01T04:32:42;28.90;;;19.77;;
73938;SDS011;62291;47.554;8.504;2023-02-01T04:35:08;30.17;;;19.70;;
73938;SDS011;62291;47.554;8.504;2023-02-01T04:37:34;29.60;;;20.02;;
73938;SDS011;62291;47.554;8.504;2023-02-01T04:40:00;31.67;;;19.98;;
73938;SDS011;62291;47.554;8.504;2023-02-01T04:42:28;27.83;;;18.50;;
73938;SDS011;62291;47.554;8.504;2023-02-01T04:44:54;28.15;;;18.70;;
73938;SDS011;62291;47.554;8.504;2023-02-01T04:47:20;29.90;;;19.17;;
73938;SDS011;62291;47.554;8.504;2023-02-01T04:49:45;26.88;;;18.02;;
73938;SDS011;62291;47.554;8.504;2023-02-01T04:52:11;29.10;;;19.27;;
73938;SDS011;62291;47.554;8.504;2023-02-01T04:54:37;24.88;;;16.75;;
73938;SDS011;62291;47.554;8.504;2023-02-01T04:57:02;26.42;;;16.95;;
73938;SDS011;62291;47.554;8.504;2023-02-01T04:59:28;22.95;;;15.10;;
73938;SDS011;62291;47.554;8.504;2023-02-01T05:01:54;23.42;;;15.48;;
73938;SDS011;62291;47.554;8.504;2023-02-01T05:04:19;22.25;;;15.98;;
73938;SDS011;62291;47.554;8.504;2023-02-01T05:06:45;23.48;;;15.57;;
73938;SDS011;62291;47.554;8.504;2023-02-01T05:09:11;21.67;;;15.27;;
73938;SDS011;62291;47.554;8.504;2023-02-01T05:11:37;22.17;;;15.63;;
73938;SDS011;62291;47.554;8.504;2023-02-01T05:14:21;22.40;;;14.98;;
73938;SDS011;62291;47.554;8.504;2023-02-01T05:16:47;22.08;;;14.40;;
73938;SDS011;62291;47.554;8.504;2023-02-01T05:19:13;24.17;;;14.57;;
73938;SDS011;62291;47.554;8.504;2023-02-01T05:21:38;23.73;;;14.23;;
73938;SDS011;62291;47.554;8.504;2023-02-01T05:24:06;21.13;;;14.30;;
73938;SDS011;62291;47.554;8.504;2023-02-01T05:26:45;22.00;;;14.20;;
73938;SDS011;62291;47.554;8.504;2023-02-01T05:29:11;21.23;;;13.88;;
73938;SDS011;62291;47.554;8.504;2023-02-01T05:31:37;20.10;;;13.60;;
73938;SDS011;62291;47.554;8.504;2023-02-01T05:34:04;21.63;;;15.10;;
73938;SDS011;62291;47.554;8.504;2023-02-01T05:36:30;20.13;;;14.27;;
73938;SDS011;62291;47.554;8.504;2023-02-01T05:38:56;21.60;;;14.55;;
73938;SDS011;62291;47.554;8.504;2023-02-01T05:41:22;20.13;;;14.23;;
73938;SDS011;62291;47.554;8.504;2023-02-01T05:43:48;19.15;;;13.98;;
73938;SDS011;62291;47.554;8.504;2023-02-01T05:46:14;20.13;;;14.52;;
73938;SDS011;62291;47.554;8.504;2023-02-01T05:48:40;18.70;;;14.25;;
73938;SDS011;62291;47.554;8.504;2023-02-01T05:51:07;20.92;;;14.70;;
73938;SDS011;62291;47.554;8.504;2023-02-01T05:53:32;19.85;;;14.73;;
73938;SDS011;62291;47.554;8.504;2023-02-01T05:55:58;22.40;;;15.50;;
73938;SDS011;62291;47.554;8.504;2023-02-01T05:58:24;23.05;;;15.57;;
73938;SDS011;62291;47.554;8.504;2023-02-01T06:00:49;21.73;;;15.73;;
73938;SDS011;62291;47.554;8.504;2023-02-01T06:03:15;21.13;;;15.63;;
73938;SDS011;62291;47.554;8.504;2023-02-01T06:05:43;25.35;;;16.98;;
73938;SDS011;62291;47.554;8.504;2023-02-01T06:08:09;26.63;;;17.13;;
73938;SDS011;62291;47.554;8.504;2023-02-01T06:10:34;24.15;;;16.17;;
73938;SDS011;62291;47.554;8.504;2023-02-01T06:13:00;24.30;;;17.08;;
73938;SDS011;62291;47.554;8.504;2023-02-01T06:15:27;24.33;;;17.23;;
73938;SDS011;62291;47.554;8.504;2023-02-01T06:17:53;25.48;;;17.40;;
73938;SDS011;62291;47.554;8.504;2023-02-01T06:20:19;22.90;;;17.48;;
73938;SDS011;62291;47.554;8.504;2023-02-01T06:22:45;22.00;;;16.52;;
73938;SDS011;62291;47.554;8.504;2023-02-01T06:25:11;23.52;;;15.80;;
73938;SDS011;62291;47.554;8.504;2023-02-01T06:27:37;22.27;;;16.13;;
73938;SDS011;62291;47.554;8.504;2023-02-01T06:30:04;22.00;;;15.50;;
73938;SDS011;62291;47.554;8.504;2023-02-01T06:32:31;24.48;;;15.63;;
73938;SDS011;62291;47.554;8.504;2023-02-01T06:34:57;22.77;;;15.13;;
73938;SDS011;62291;47.554;8.504;2023-02-01T06:37:24;22.15;;;15.82;;
73938;SDS011;62291;47.554;8.504;2023-02-01T06:39:52;20.70;;;16.27;;
73938;SDS011;62291;47.554;8.504;2023-02-01T06:42:18;23.23;;;16.85;;
73938;SDS011;62291;47.554;8.504;2023-02-01T06:44:43;22.73;;;16.25;;
73938;SDS011;62291;47.554;8.504;2023-02-01T06:47:09;23.15;;;15.90;;
73938;SDS011;62291;47.554;8.504;2023-02-01T06:49:35;21.98;;;13.90;;
73938;SDS011;62291;47.554;8.504;2023-02-01T06:52:01;19.20;;;12.82;;
73938;SDS011;62291;47.554;8.504;2023-02-01T06:54:27;16.73;;;10.30;;
73938;SDS011;62291;47.554;8.504;2023-02-01T06:56:53;15.65;;;9.55;;
73938;SDS011;62291;47.554;8.504;2023-02-01T06:59:21;14.82;;;9.60;;
73938;SDS011;62291;47.554;8.504;2023-02-01T07:01:47;14.88;;;10.13;;
73938;SDS011;62291;47.554;8.504;2023-02-01T07:04:12;21.02;;;11.73;;
73938;SDS011;62291;47.554;8.504;2023-02-01T07:06:38;18.00;;;12.02;;
73938;SDS011;62291;47.554;8.504;2023-02-01T07:09:05;17.38;;;11.95;;
73938;SDS011;62291;47.554;8.504;2023-02-01T07:11:33;20.45;;;13.20;;
73938;SDS011;62291;47.554;8.504;2023-02-01T07:13:59;20.50;;;14.23;;
73938;SDS011;62291;47.554;8.504;2023-02-01T07:16:25;21.83;;;14.20;;
73938;SDS011;62291;47.554;8.504;2023-02-01T07:18:51;22.27;;;14.88;;
73938;SDS011;62291;47.554;8.504;2023-02-01T07:21:18;25.60;;;16.13;;
73938;SDS011;62291;47.554;8.504;2023-02-01T07:23:44;24.70;;;16.65;;
73938;SDS011;62291;47.554;8.504;2023-02-01T07:26:11;26.63;;;17.23;;
73938;SDS011;62291;47.554;8.504;2023-02-01T07:28:38;27.33;;;17.48;;
73938;SDS011;62291;47.554;8.504;2023-02-01T07:31:04;27.17;;;18.05;;
73938;SDS011;62291;47.554;8.504;2023-02-01T07:33:32;26.88;;;17.50;;
73938;SDS011;62291;47.554;8.504;2023-02-01T07:35:59;28.30;;;18.63;;
73938;SDS011;62291;47.554;8.504;2023-02-01T07:38:27;31.15;;;19.95;;
73938;SDS011;62291;47.554;8.504;2023-02-01T07:40:56;31.00;;;19.00;;
73938;SDS011;62291;47.554;8.504;2023-02-01T07:43:26;34.28;;;21.60;;
73938;SDS011;62291;47.554;8.504;2023-02-01T07:45:53;31.45;;;21.00;;
73938;SDS011;62291;47.554;8.504;2023-02-01T07:48:19;31.48;;;20.38;;
73938;SDS011;62291;47.554;8.504;2023-02-01T07:50:45;31.10;;;21.75;;
73938;SDS011;62291;47.554;8.504;2023-02-01T07:53:11;38.05;;;23.33;;
73938;SDS011;62291;47.554;8.504;2023-02-01T07:55:37;33.10;;;21.83;;
73938;SDS011;62291;47.554;8.504;2023-02-01T07:58:06;36.35;;;22.25;;
73938;SDS011;62291;47.554;8.504;2023-02-01T08:00:32;37.20;;;21.83;;
73938;SDS011;62291;47.554;8.504;2023-02-01T08:03:16;36.67;;;22.90;;
73938;SDS011;62291;47.554;8.504;2023-02-01T08:05:42;33.92;;;21.67;;
73938;SDS011;62291;47.554;8.504;2023-02-01T08:08:08;33.58;;;21.15;;
73938;SDS011;62291;47.554;8.504;2023-02-01T08:10:34;32.63;;;21.63;;
73938;SDS011;62291;47.554;8.504;2023-02-01T08:13:00;32.45;;;21.23;;
73938;SDS011;62291;47.554;8.504;2023-02-01T08:15:27;36.38;;;21.08;;
73938;SDS011;62291;47.554;8.504;2023-02-01T08:17:54;31.23;;;20.40;;
73938;SDS011;62291;47.554;8.504;2023-02-01T08:20:20;31.50;;;20.42;;
73938;SDS011;62291;47.554;8.504;2023-02-01T08:22:47;31.27;;;20.00;;
73938;SDS011;62291;47.554;8.504;2023-02-01T08:25:14;35.00;;;20.45;;
73938;SDS011;62291;47.554;8.504;2023-02-01T08:27:40;35.70;;;21.98;;
73938;SDS011;62291;47.554;8.504;2023-02-01T08:30:05;32.72;;;20.77;;
73938;SDS011;62291;47.554;8.504;2023-02-01T08:32:32;34.67;;;20.52;;
73938;SDS011;62291;47.554;8.504;2023-02-01T08:34:58;33.35;;;19.90;;
73938;SDS011;62291;47.554;8.504;2023-02-01T08:37:24;33.30;;;20.00;;
73938;SDS011;62291;47.554;8.504;2023-02-01T08:39:50;33.60;;;19.45;;
73938;SDS011;62291;47.554;8.504;2023-02-01T08:42:16;33.00;;;20.00;;
73938;SDS011;62291;47.554;8.504;2023-02-01T08:45:01;33.92;;;20.00;;
73938;SDS011;62291;47.554;8.504;2023-02-01T08:47:28;32.72;;;19.17;;
73938;SDS011;62291;47.554;8.504;2023-02-01T08:49:54;32.88;;;18.83;;
73938;SDS011;62291;47.554;8.504;2023-02-01T08:52:20;33.25;;;19.92;;
73938;SDS011;62291;47.554;8.504;2023-02-01T08:54:45;33.20;;;19.65;;
73938;SDS011;62291;47.554;8.504;2023-02-01T08:57:11;28.25;;;18.75;;
73938;SDS011;62291;47.554;8.504;2023-02-01T08:59:37;30.50;;;18.60;;
73938;SDS011;62291;47.554;8.504;2023-02-01T09:02:02;32.00;;;18.90;;
73938;SDS011;62291;47.554;8.504;2023-02-01T09:04:28;27.40;;;17.67;;
73938;SDS011;62291;47.554;8.504;2023-02-01T09:06:54;26.70;;;16.77;;
73938;SDS011;62291;47.554;8.504;2023-02-01T09:09:23;27.98;;;16.65;;
73938;SDS011;62291;47.554;8.504;2023-02-01T09:11:49;26.00;;;16.80;;
73938;SDS011;62291;47.554;8.504;2023-02-01T09:14:18;23.33;;;16.05;;
73938;SDS011;62291;47.554;8.504;2023-02-01T09:16:44;25.25;;;15.90;;
73938;SDS011;62291;47.554;8.504;2023-02-01T09:19:10;24.50;;;16.02;;
73938;SDS011;62291;47.554;8.504;2023-02-01T09:21:36;26.52;;;15.38;;
73938;SDS011;62291;47.554;8.504;2023-02-01T09:24:01;29.70;;;20.60;;
73938;SDS011;62291;47.554;8.504;2023-02-01T09:26:29;24.23;;;15.40;;
73938;SDS011;62291;47.554;8.504;2023-02-01T09:28:55;24.13;;;14.55;;
73938;SDS011;62291;47.554;8.504;2023-02-01T09:31:21;23.25;;;14.65;;
73938;SDS011;62291;47.554;8.504;2023-02-01T09:33:46;21.65;;;14.45;;
73938;SDS011;62291;47.554;8.504;2023-02-01T09:36:12;22.42;;;13.15;;
73938;SDS011;62291;47.554;8.504;2023-02-01T09:38:37;22.25;;;13.80;;
73938;SDS011;62291;47.554;8.504;2023-02-01T09:41:07;19.30;;;13.30;;
73938;SDS011;62291;47.554;8.504;2023-02-01T09:44:04;18.27;;;11.93;;
73938;SDS011;62291;47.554;8.504;2023-02-01T09:46:47;18.98;;;12.23;;
73938;SDS011;62291;47.554;8.504;2023-02-01T09:49:17;18.58;;;11.65;;
73938;SDS011;62291;47.554;8.504;2023-02-01T09:51:48;17.55;;;12.05;;
73938;SDS011;62291;47.554;8.504;2023-02-01T09:54:18;17.23;;;11.10;;
73938;SDS011;62291;47.554;8.504;2023-02-01T09:56:48;16.63;;;11.05;;
73938;SDS011;62291;47.554;8.504;2023-02-01T10:02:08;18.55;;;11.88;;
73938;SDS011;62291;47.554;8.504;2023-02-01T10:04:39;16.58;;;11.63;;
73938;SDS011;62291;47.554;8.504;2023-02-01T10:09:58;20.65;;;11.32;;
73938;SDS011;62291;47.554;8.504;2023-02-01T10:13:07;16.85;;;11.13;;
73938;SDS011;62291;47.554;8.504;2023-02-01T10:27:27;14.95;;;10.63;;
73938;SDS011;62291;47.554;8.504;2023-02-01T10:30:03;14.25;;;9.88;;
73938;SDS011;62291;47.554;8.504;2023-02-01T10:32:35;15.40;;;10.48;;
73938;SDS011;62291;47.554;8.504;2023-02-01T10:35:02;17.17;;;11.35;;
73938;SDS011;62291;47.554;8.504;2023-02-01T10:37:48;15.63;;;10.27;;
73938;SDS011;62291;47.554;8.504;2023-02-01T10:40:16;13.82;;;10.07;;
73938;SDS011;62291;47.554;8.504;2023-02-01T10:42:47;17.70;;;10.73;;
73938;SDS011;62291;47.554;8.504;2023-02-01T10:45:17;16.15;;;10.77;;
73938;SDS011;62291;47.554;8.504;2023-02-01T10:55:41;14.27;;;9.70;;
73938;SDS011;62291;47.554;8.504;2023-02-01T10:58:20;14.18;;;10.15;;
73938;SDS011;62291;47.554;8.504;2023-02-01T11:00:53;13.02;;;9.25;;
73938;SDS011;62291;47.554;8.504;2023-02-01T11:06:10;12.20;;;8.60;;
73938;SDS011;62291;47.554;8.504;2023-02-01T11:08:53;12.32;;;8.93;;
73938;SDS011;62291;47.554;8.504;2023-02-01T11:11:22;11.57;;;8.80;;
73938;SDS011;62291;47.554;8.504;2023-02-01T11:13:57;11.45;;;7.88;;
73938;SDS011;62291;47.554;8.504;2023-02-01T11:16:33;10.65;;;7.80;;
73938;SDS011;62291;47.554;8.504;2023-02-01T11:19:00;12.52;;;8.23;;
73938;SDS011;62291;47.554;8.504;2023-02-01T11:21:26;10.93;;;7.82;;
73938;SDS011;62291;47.554;8.504;2023-02-01T11:23:52;11.88;;;8.18;;
73938;SDS011;62291;47.554;8.504;2023-02-01T11:29:10;10.52;;;7.70;;
73938;SDS011;62291;47.554;8.504;2023-02-01T11:31:38;9.68;;;7.40;;
73938;SDS011;62291;47.554;8.504;2023-02-01T11:34:13;10.68;;;7.28;;
73938;SDS011;62291;47.554;8.504;2023-02-01T11:36:46;9.95;;;7.00;;
73938;SDS011;62291;47.554;8.504;2023-02-01T11:42:01;8.77;;;6.50;;
73938;SDS011;62291;47.554;8.504;2023-02-01T11:49:47;10.27;;;6.70;;
73938;SDS011;62291;47.554;8.504;2023-02-01T12:14:05;10.25;;;5.97;;
73938;SDS011;62291;47.554;8.504;2023-02-01T12:19:58;11.95;;;6.47;;
73938;SDS011;62291;47.554;8.504;2023-02-01T12:36:56;11.45;;;6.47;;
73938;SDS011;62291;47.554;8.504;2023-02-01T12:42:21;10.00;;;6.18;;
73938;SDS011;62291;47.554;8.504;2023-02-01T12:47:44;15.98;;;7.88;;
73938;SDS011;62291;47.554;8.504;2023-02-01T12:50:19;10.05;;;3.67;;
73938;SDS011;62291;47.554;8.504;2023-02-01T12:53:00;9.48;;;3.03;;
73938;SDS011;62291;47.554;8.504;2023-02-01T12:55:36;10.90;;;5.28;;
73938;SDS011;62291;47.554;8.504;2023-02-01T12:58:17;9.35;;;3.05;;
73938;SDS011;62291;47.554;8.504;2023-02-01T13:03:52;7.70;;;4.32;;
73938;SDS011;62291;47.554;8.504;2023-02-01T13:06:31;10.25;;;3.85;;
73938;SDS011;62291;47.554;8.504;2023-02-01T13:09:05;17.77;;;7.05;;
73938;SDS011;62291;47.554;8.504;2023-02-01T13:11:53;30.40;;;13.25;;
73938;SDS011;62291;47.554;8.504;2023-02-01T13:17:11;11.10;;;3.35;;
73938;SDS011;62291;47.554;8.504;2023-02-01T13:19:48;6.18;;;2.80;;
73938;SDS011;62291;47.554;8.504;2023-02-01T13:22:25;5.18;;;2.53;;
73938;SDS011;62291;47.554;8.504;2023-02-01T13:25:12;9.13;;;2.58;;
73938;SDS011;62291;47.554;8.504;2023-02-01T13:27:39;8.57;;;2.30;;
73938;SDS011;62291;47.554;8.504;2023-02-01T13:41:02;6.80;;;2.13;;
73938;SDS011;62291;47.554;8.504;2023-02-01T13:43:34;11.15;;;4.32;;
73938;SDS011;62291;47.554;8.504;2023-02-01T13:46:06;8.32;;;2.65;;
73938;SDS011;62291;47.554;8.504;2023-02-01T13:51:03;9.23;;;2.53;;
73938;SDS011;62291;47.554;8.504;2023-02-01T13:53:35;8.93;;;2.03;;
73938;SDS011;62291;47.554;8.504;2023-02-01T13:56:09;9.00;;;2.25;;
73938;SDS011;62291;47.554;8.504;2023-02-01T13:58:37;5.00;;;2.00;;
73938;SDS011;62291;47.554;8.504;2023-02-01T14:03:55;9.88;;;2.50;;
73938;SDS011;62291;47.554;8.504;2023-02-01T14:11:45;11.25;;;2.40;;
73938;SDS011;62291;47.554;8.504;2023-02-01T14:17:29;9.20;;;2.78;;
73938;SDS011;62291;47.554;8.504;2023-02-01T14:19:35;13.97;;;2.10;;
73938;SDS011;62291;47.554;8.504;2023-02-01T14:24:52;8.32;;;1.75;;
73938;SDS011;62291;47.554;8.504;2023-02-01T14:27:21;7.38;;;1.85;;
73938;SDS011;62291;47.554;8.504;2023-02-01T14:30:01;9.82;;;2.50;;
73938;SDS011;62291;47.554;8.504;2023-02-01T14:32:33;11.55;;;2.50;;
73938;SDS011;62291;47.554;8.504;2023-02-01T14:35:05;8.13;;;2.05;;
73938;SDS011;62291;47.554;8.504;2023-02-01T14:37:36;11.48;;;2.30;;
73938;SDS011;62291;47.554;8.504;2023-02-01T15:01:24;9.82;;;2.42;;
73938;SDS011;62291;47.554;8.504;2023-02-01T15:06:40;10.32;;;2.70;;
73938;SDS011;62291;47.554;8.504;2023-02-01T15:09:14;13.27;;;2.70;;
73938;SDS011;62291;47.554;8.504;2023-02-01T15:12:08;11.55;;;2.45;;
73938;SDS011;62291;47.554;8.504;2023-02-01T15:17:36;15.73;;;3.25;;
73938;SDS011;62291;47.554;8.504;2023-02-01T15:22:36;11.63;;;2.67;;
73938;SDS011;62291;47.554;8.504;2023-02-01T15:25:02;8.10;;;2.85;;
73938;SDS011;62291;47.554;8.504;2023-02-01T15:27:28;12.02;;;3.40;;
73938;SDS011;62291;47.554;8.504;2023-02-01T15:30:06;12.13;;;3.05;;
73938;SDS011;62291;47.554;8.504;2023-02-01T15:32:37;13.82;;;3.80;;
73938;SDS011;62291;47.554;8.504;2023-02-01T15:35:05;11.88;;;2.72;;
73938;SDS011;62291;47.554;8.504;2023-02-01T15:37:50;11.23;;;2.55;;
73938;SDS011;62291;47.554;8.504;2023-02-01T15:40:20;9.93;;;2.45;;
73938;SDS011;62291;47.554;8.504;2023-02-01T15:42:55;12.55;;;2.28;;
73938;SDS011;62291;47.554;8.504;2023-02-01T15:45:27;16.85;;;2.47;;
73938;SDS011;62291;47.554;8.504;2023-02-01T15:47:55;8.02;;;2.35;;
73938;SDS011;62291;47.554;8.504;2023-02-01T15:50:23;8.30;;;2.25;;
73938;SDS011;62291;47.554;8.504;2023-02-01T15:52:53;10.48;;;2.70;;
73938;SDS011;62291;47.554;8.504;2023-02-01T15:55:23;9.13;;;2.47;;
73938;SDS011;62291;47.554;8.504;2023-02-01T15:57:58;8.93;;;2.17;;
73938;SDS011;62291;47.554;8.504;2023-02-01T16:00:25;16.23;;;2.30;;
73938;SDS011;62291;47.554;8.504;2023-02-01T16:02:57;9.48;;;1.88;;
73938;SDS011;62291;47.554;8.504;2023-02-01T16:05:34;10.82;;;2.58;;
73938;SDS011;62291;47.554;8.504;2023-02-01T16:08:21;7.60;;;2.40;;
73938;SDS011;62291;47.554;8.504;2023-02-01T16:10:49;18.33;;;5.60;;
73938;SDS011;62291;47.554;8.504;2023-02-01T16:13:18;13.00;;;2.50;;
73938;SDS011;62291;47.554;8.504;2023-02-01T16:15:45;10.05;;;2.40;;
73938;SDS011;62291;47.554;8.504;2023-02-01T16:18:12;10.82;;;2.60;;
73938;SDS011;62291;47.554;8.504;2023-02-01T16:20:39;9.02;;;2.63;;
73938;SDS011;62291;47.554;8.504;2023-02-01T16:23:06;9.98;;;2.60;;
73938;SDS011;62291;47.554;8.504;2023-02-01T16:25:33;10.23;;;2.20;;
73938;SDS011;62291;47.554;8.504;2023-02-01T16:28:00;9.27;;;2.53;;
73938;SDS011;62291;47.554;8.504;2023-02-01T16:30:26;10.00;;;2.30;;
73938;SDS011;62291;47.554;8.504;2023-02-01T16:32:52;8.80;;;2.30;;
73938;SDS011;62291;47.554;8.504;2023-02-01T16:35:30;7.37;;;2.57;;
73938;SDS011;62291;47.554;8.504;2023-02-01T16:38:01;10.35;;;2.83;;
73938;SDS011;62291;47.554;8.504;2023-02-01T16:40:37;10.88;;;2.38;;
73938;SDS011;62291;47.554;8.504;2023-02-01T16:43:08;12.63;;;2.60;;
73938;SDS011;62291;47.554;8.504;2023-02-01T16:45:38;10.95;;;2.95;;
73938;SDS011;62291;47.554;8.504;2023-02-01T16:48:05;12.90;;;2.30;;
73938;SDS011;62291;47.554;8.504;2023-02-01T16:50:31;11.07;;;2.60;;
73938;SDS011;62291;47.554;8.504;2023-02-01T16:52:58;11.63;;;2.25;;
73938;SDS011;62291;47.554;8.504;2023-02-01T16:55:23;9.77;;;2.53;;
73938;SDS011;62291;47.554;8.504;2023-02-01T16:57:50;10.00;;;2.42;;
73938;SDS011;62291;47.554;8.504;2023-02-01T17:00:16;14.82;;;2.45;;
73938;SDS011;62291;47.554;8.504;2023-02-01T17:02:44;14.18;;;2.67;;
73938;SDS011;62291;47.554;8.504;2023-02-01T17:05:10;10.63;;;2.35;;
73938;SDS011;62291;47.554;8.504;2023-02-01T17:07:36;11.07;;;2.20;;
73938;SDS011;62291;47.554;8.504;2023-02-01T17:10:04;12.48;;;1.90;;
73938;SDS011;62291;47.554;8.504;2023-02-01T17:12:31;12.00;;;2.60;;
73938;SDS011;62291;47.554;8.504;2023-02-01T17:14:58;8.45;;;2.28;;
73938;SDS011;62291;47.554;8.504;2023-02-01T17:17:33;10.63;;;2.28;;
73938;SDS011;62291;47.554;8.504;2023-02-01T17:20:02;12.52;;;2.15;;
73938;SDS011;62291;47.554;8.504;2023-02-01T17:22:28;8.45;;;1.98;;
73938;SDS011;62291;47.554;8.504;2023-02-01T17:24:54;8.43;;;2.03;;
73938;SDS011;62291;47.554;8.504;2023-02-01T17:27:20;9.40;;;2.22;;
73938;SDS011;62291;47.554;8.504;2023-02-01T17:29:46;8.80;;;2.50;;
73938;SDS011;62291;47.554;8.504;2023-02-01T17:32:16;10.60;;;2.08;;
73938;SDS011;62291;47.554;8.504;2023-02-01T17:34:47;7.55;;;2.17;;
73938;SDS011;62291;47.554;8.504;2023-02-01T17:37:18;10.30;;;2.20;;
73938;SDS011;62291;47.554;8.504;2023-02-01T17:39:49;8.93;;;2.45;;
73938;SDS011;62291;47.554;8.504;2023-02-01T17:44:48;10.85;;;2.13;;